createdAt,value
2018-09-22T11:37:16.936Z,5.80
2018-09-22T11:38:14.997Z,2.80
2018-09-22T11:39:13.188Z,2.90
2018-09-22T11:40:12.729Z,4.40
2018-09-22T11:41:12.679Z,3.80
2018-09-22T11:42:12.526Z,3.50
2018-09-22T11:42:57.214Z,6.00
2018-09-22T11:43:51.725Z,4.10
2018-09-22T11:44:51.849Z,3.30
2018-09-22T11:45:57.659Z,4.00
2018-09-22T11:46:53.304Z,3.20
2018-09-22T11:47:51.951Z,4.80
2018-09-22T11:48:51.440Z,3.40
2018-09-22T11:49:54.275Z,3.90
2018-09-22T11:50:51.370Z,4.60
2018-09-22T11:51:51.252Z,3.70
2018-09-22T11:52:53.661Z,4.60
2018-09-22T11:53:51.275Z,5.00
2018-09-22T11:54:54.532Z,5.40
2018-09-22T11:55:51.063Z,3.70
2018-09-22T11:56:55.776Z,4.00
2018-09-22T11:57:53.708Z,4.80
2018-09-22T12:00:23.298Z,2.50
2018-09-22T12:01:16.333Z,3.40
2018-09-22T12:05:13.540Z,11.00
2018-09-22T12:06:11.670Z,9.80
2018-09-22T12:07:11.162Z,11.10
2018-09-22T12:08:16.691Z,10.80
2018-09-22T12:09:14.022Z,11.20
2018-09-22T12:10:13.851Z,9.30
2018-09-22T12:11:12.287Z,8.10
2018-09-22T12:12:10.657Z,11.90
2018-09-22T12:13:10.580Z,9.40
2018-09-22T12:14:11.601Z,8.80
2018-09-22T12:15:10.481Z,9.90
2018-09-22T12:16:12.544Z,6.60
2018-09-22T12:17:09.848Z,6.50
2018-09-22T12:18:09.880Z,9.10
2018-09-22T12:19:10.112Z,8.00
2018-09-22T12:20:10.784Z,6.50
2018-09-22T12:21:10.855Z,8.90
2018-09-22T12:22:09.527Z,10.70
